14°C Temp
9°C Dewpoint
% Humidity
Temperature
21 KM/H
13 MPH
11 KTS
250°
West South
West

Wind Speed
Partly Cloudy
Conditions
Pressure 1014.92 (hPa) - 29.97 (in)
Visibility 6.2 (mi) - 10.0 (km)

Current Conditions
EHBK
Location 6km (3.2mi)
Metar :EHBK 060625Z AUTO 25011KT 210V320 9999 FEW016 14/09 Q1015 NOSIG
Mon 6th July 07:25 am

Airport
  Metar Aviation API Data Provided by https://www.checkwx.com/ PHP scripts by weather34.com ©2020